createdAt,value
2022-09-06T00:02:21.300Z,83.93
2022-09-06T00:04:49.443Z,84.02
2022-09-06T00:07:17.377Z,84.07
2022-09-06T00:09:46.725Z,84.08
2022-09-06T00:12:14.580Z,83.99
2022-09-06T00:14:42.534Z,84.35
2022-09-06T00:17:10.601Z,84.35
2022-09-06T00:19:38.480Z,84.55
2022-09-06T00:22:06.547Z,84.51
2022-09-06T00:24:34.396Z,84.76
2022-09-06T00:27:03.697Z,84.77
2022-09-06T00:29:31.753Z,84.70
2022-09-06T00:32:00.460Z,84.70
2022-09-06T00:34:29.129Z,84.72
2022-09-06T00:36:57.176Z,84.73
2022-09-06T00:39:25.201Z,84.78
2022-09-06T00:41:53.194Z,84.98
2022-09-06T00:44:22.785Z,84.85
2022-09-06T00:46:53.058Z,85.11
2022-09-06T00:49:25.755Z,85.23
2022-09-06T00:51:56.919Z,85.17
2022-09-06T00:54:25.141Z,85.19
2022-09-06T00:56:53.110Z,85.23
2022-09-06T00:59:23.190Z,85.31
2022-09-06T01:01:51.367Z,85.04
2022-09-06T01:04:19.698Z,85.08
2022-09-06T01:06:58.121Z,85.32
2022-09-06T01:09:37.639Z,85.38
2022-09-06T01:12:18.903Z,85.29
2022-09-06T01:15:06.191Z,85.63
2022-09-06T01:17:45.610Z,85.22
2022-09-06T01:20:32.561Z,85.54
2022-09-06T01:23:29.612Z,85.52
2022-09-06T01:26:11.638Z,85.18
2022-09-06T01:28:43.920Z,85.29
2022-09-06T01:31:26.000Z,85.24
2022-09-06T01:34:12.288Z,85.29
2022-09-06T01:37:08.585Z,85.00
2022-09-06T01:39:36.697Z,84.97
2022-09-06T01:42:09.172Z,85.17
2022-09-06T01:44:40.381Z,85.03
2022-09-06T01:47:17.302Z,85.35
2022-09-06T01:49:55.154Z,85.41
2022-09-06T01:52:33.584Z,85.58
2022-09-06T01:55:18.554Z,85.78
2022-09-06T01:58:08.439Z,85.87
2022-09-06T02:00:48.160Z,85.86
2022-09-06T02:03:24.487Z,85.46
2022-09-06T02:05:55.408Z,85.36
2022-09-06T02:08:28.879Z,85.47
2022-09-06T02:11:00.813Z,85.84
2022-09-06T02:13:34.465Z,85.99
2022-09-06T02:16:05.696Z,86.03
2022-09-06T02:18:39.522Z,85.86
2022-09-06T02:21:10.209Z,86.02
2022-09-06T02:23:41.550Z,85.99
2022-09-06T02:26:14.360Z,86.42
2022-09-06T02:28:42.655Z,86.09
2022-09-06T02:31:17.809Z,86.31
2022-09-06T02:33:47.379Z,86.49
2022-09-06T02:36:15.922Z,86.38
2022-09-06T02:38:45.661Z,86.22
2022-09-06T02:41:14.984Z,86.58
2022-09-06T02:43:43.916Z,86.58
2022-09-06T02:46:13.836Z,86.90
2022-09-06T02:48:42.137Z,86.89
2022-09-06T02:51:10.782Z,86.61
2022-09-06T02:53:38.908Z,86.85
2022-09-06T02:56:07.274Z,87.07
2022-09-06T02:58:35.556Z,87.03
2022-09-06T03:01:04.081Z,86.92
2022-09-06T03:03:33.577Z,87.26
2022-09-06T03:06:01.509Z,87.07
2022-09-06T03:08:33.609Z,87.09
2022-09-06T03:11:02.148Z,87.06
2022-09-06T03:13:30.789Z,87.23
2022-09-06T03:16:00.343Z,87.43
2022-09-06T03:18:31.033Z,87.46
2022-09-06T03:21:00.461Z,87.39
2022-09-06T03:23:30.215Z,87.33
2022-09-06T03:25:58.529Z,87.54
2022-09-06T03:28:27.046Z,87.85
2022-09-06T03:30:55.360Z,87.83
2022-09-06T03:33:23.945Z,87.50
2022-09-06T03:35:53.918Z,87.55
2022-09-06T03:38:24.923Z,87.86
2022-09-06T03:40:53.350Z,87.93
2022-09-06T03:43:23.189Z,87.70
2022-09-06T03:45:53.196Z,87.72
2022-09-06T03:48:23.390Z,87.98
2022-09-06T03:50:55.747Z,88.16
2022-09-06T03:53:27.272Z,88.22
2022-09-06T03:55:57.762Z,88.17
2022-09-06T03:58:30.046Z,88.17
2022-09-06T04:01:04.573Z,87.96
2022-09-06T04:03:33.147Z,88.38
2022-09-06T04:06:01.057Z,88.01
2022-09-06T04:08:30.777Z,88.23
2022-09-06T04:10:59.536Z,88.03
2022-09-06T04:13:28.762Z,87.68
2022-09-06T04:15:57.005Z,87.88
2022-09-06T04:18:25.058Z,87.90
2022-09-06T04:20:55.964Z,87.89
2022-09-06T04:23:24.973Z,88.13
2022-09-06T04:25:56.692Z,88.14
2022-09-06T04:28:26.796Z,88.00
2022-09-06T04:30:55.943Z,88.00
2022-09-06T04:33:26.210Z,87.61
2022-09-06T04:35:55.001Z,87.70
2022-09-06T04:38:23.049Z,87.59
2022-09-06T04:40:51.280Z,87.60
2022-09-06T04:43:20.793Z,87.49
2022-09-06T04:45:48.832Z,87.19
2022-09-06T04:48:17.274Z,87.44
2022-09-06T04:50:45.373Z,87.29
2022-09-06T04:53:13.260Z,86.85
2022-09-06T04:55:41.329Z,86.72
2022-09-06T04:58:09.430Z,86.42
2022-09-06T05:00:39.000Z,86.06
2022-09-06T05:03:06.998Z,85.92
2022-09-06T05:05:35.030Z,85.39
2022-09-06T05:08:03.129Z,85.15
2022-09-06T05:10:31.072Z,85.03
2022-09-06T05:12:59.021Z,84.86
2022-09-06T05:15:26.965Z,84.86
2022-09-06T05:18:03.933Z,84.85
2022-09-06T05:20:32.328Z,84.52
2022-09-06T05:23:01.645Z,84.42
2022-09-06T05:25:29.676Z,84.25
2022-09-06T05:27:57.590Z,83.97
2022-09-06T05:30:25.557Z,83.75
2022-09-06T05:32:53.489Z,83.45
2022-09-06T05:35:22.751Z,83.20
2022-09-06T05:37:50.692Z,82.80
2022-09-06T05:40:18.753Z,82.04
2022-09-06T05:42:46.685Z,81.96
2022-09-06T05:45:14.747Z,81.81
2022-09-06T05:47:42.757Z,81.69
2022-09-06T05:50:11.381Z,81.42
2022-09-06T05:52:40.816Z,80.65
2022-09-06T05:55:09.951Z,80.74
2022-09-06T05:57:37.833Z,79.78
2022-09-06T06:00:06.842Z,79.39
2022-09-06T06:02:34.842Z,78.72
2022-09-06T06:05:03.385Z,78.43
2022-09-06T06:07:31.412Z,78.15
2022-09-06T06:10:00.844Z,77.75
2022-09-06T06:12:28.785Z,77.66
2022-09-06T06:14:56.845Z,77.59
2022-09-06T06:17:24.999Z,76.81
2022-09-06T06:19:53.587Z,76.58
2022-09-06T06:22:21.620Z,75.97
2022-09-06T06:24:49.685Z,76.09
2022-09-06T06:27:21.658Z,75.65
2022-09-06T06:29:50.740Z,75.05
2022-09-06T06:32:18.596Z,75.03
2022-09-06T06:34:46.458Z,74.58
2022-09-06T06:37:14.487Z,74.73
2022-09-06T06:39:42.401Z,74.21
2022-09-06T06:42:10.474Z,74.09
2022-09-06T06:44:39.861Z,73.82
2022-09-06T06:47:07.909Z,73.49
2022-09-06T06:49:35.789Z,73.22
2022-09-06T06:52:04.356Z,71.93
2022-09-06T06:54:32.222Z,72.99
2022-09-06T06:57:00.242Z,73.72
2022-09-06T06:59:28.322Z,74.08
2022-09-06T07:01:58.816Z,72.53
2022-09-06T07:04:26.870Z,72.12
2022-09-06T07:12:34.040Z,67.30
2022-09-06T07:15:02.044Z,66.43
2022-09-06T07:17:31.283Z,65.83
2022-09-06T07:20:15.198Z,65.83
2022-09-06T07:22:43.795Z,63.99
2022-09-06T07:25:14.387Z,63.92
2022-09-06T07:30:20.314Z,60.83
2022-09-06T07:32:49.886Z,58.75
2022-09-06T07:35:20.500Z,59.13
2022-09-06T07:37:55.980Z,58.09
2022-09-06T07:40:24.573Z,57.82
2022-09-06T07:42:52.552Z,58.31
2022-09-06T07:45:20.845Z,58.88
2022-09-06T07:50:47.406Z,56.73
2022-09-06T07:53:24.538Z,56.17
2022-09-06T07:55:57.229Z,55.26
2022-09-06T07:58:25.301Z,55.64
2022-09-06T08:00:53.176Z,55.09
2022-09-06T08:03:22.767Z,54.17
2022-09-06T08:11:29.814Z,53.27
2022-09-06T08:14:00.060Z,53.50
2022-09-06T08:16:29.687Z,53.46
2022-09-06T08:19:01.293Z,53.24
2022-09-06T08:21:32.235Z,52.96
2022-09-06T08:24:01.907Z,52.92
2022-09-06T08:26:31.174Z,52.76
2022-09-06T08:29:01.398Z,52.97
2022-09-06T08:31:31.139Z,52.83
2022-09-06T08:34:01.929Z,51.98
2022-09-06T08:36:31.570Z,52.13
2022-09-06T08:38:59.991Z,52.55
2022-09-06T08:41:32.271Z,52.54
2022-09-06T08:46:59.220Z,52.17
2022-09-06T08:49:31.634Z,51.79
2022-09-06T08:52:20.304Z,51.18
2022-09-06T08:54:55.180Z,51.83
2022-09-06T08:57:40.272Z,50.36
2022-09-06T09:00:11.913Z,50.27
2022-09-06T09:02:46.109Z,49.92
2022-09-06T09:05:25.629Z,49.49
2022-09-06T09:08:07.605Z,49.09
2022-09-06T09:10:42.569Z,49.50
2022-09-06T09:13:21.380Z,48.78
2022-09-06T09:15:49.361Z,48.89
2022-09-06T09:18:23.931Z,49.25
2022-09-06T09:20:53.745Z,47.69
2022-09-06T09:23:21.614Z,46.93
2022-09-06T09:25:52.893Z,47.85
2022-09-06T09:28:23.832Z,47.84
2022-09-06T09:30:53.202Z,48.06
2022-09-06T09:33:28.102Z,47.51
2022-09-06T09:35:59.484Z,47.48
2022-09-06T09:38:29.075Z,46.55
2022-09-06T09:40:59.513Z,46.88
2022-09-06T09:43:31.344Z,46.46
2022-09-06T09:46:16.276Z,46.32
2022-09-06T09:49:00.234Z,46.71
2022-09-06T09:51:30.924Z,46.44
2022-09-06T09:54:00.183Z,45.93
2022-09-06T09:56:37.698Z,45.50
2022-09-06T09:59:16.618Z,46.02
2022-09-06T10:01:45.072Z,45.28
2022-09-06T10:07:13.244Z,43.83
2022-09-06T10:09:43.932Z,44.51
2022-09-06T10:12:18.718Z,45.32
2022-09-06T10:14:49.232Z,45.17
2022-09-06T10:17:23.461Z,43.94
2022-09-06T10:19:51.515Z,44.33
2022-09-06T10:22:31.449Z,44.40
2022-09-06T10:25:18.379Z,44.04
2022-09-06T10:28:15.952Z,44.10
2022-09-06T10:30:55.102Z,43.91
2022-09-06T10:33:33.514Z,44.17
2022-09-06T10:36:04.601Z,43.91
2022-09-06T10:38:49.625Z,43.06
2022-09-06T10:41:33.281Z,42.99
2022-09-06T10:44:18.368Z,43.24
2022-09-06T10:46:47.042Z,43.75
2022-09-06T10:49:19.181Z,43.30
2022-09-06T10:51:51.940Z,42.69
2022-09-06T10:54:23.474Z,41.95
2022-09-06T10:56:57.206Z,43.06
2022-09-06T10:59:38.199Z,43.70
2022-09-06T11:02:16.363Z,44.35
2022-09-06T11:07:42.059Z,43.98
2022-09-06T11:10:19.820Z,43.27
2022-09-06T11:12:55.472Z,42.89
2022-09-06T11:15:26.561Z,43.19
2022-09-06T11:18:02.429Z,41.92
2022-09-06T11:20:37.073Z,41.50
2022-09-06T11:23:41.703Z,39.81
2022-09-06T11:26:28.869Z,40.71
2022-09-06T11:28:59.333Z,39.89
2022-09-06T11:34:26.599Z,40.69
2022-09-06T11:36:57.406Z,41.72
2022-09-06T11:43:03.194Z,39.11
2022-09-06T11:45:43.906Z,38.39
2022-09-06T11:48:35.230Z,39.01
2022-09-06T11:51:07.863Z,38.88
2022-09-06T11:53:57.800Z,38.77
2022-09-06T11:56:32.163Z,38.71
2022-09-06T11:59:07.806Z,38.10
2022-09-06T12:01:41.110Z,38.09
2022-09-06T12:04:12.194Z,38.75
2022-09-06T12:06:43.142Z,38.85
2022-09-06T12:09:31.710Z,38.46
2022-09-06T12:12:00.481Z,38.19
2022-09-06T12:14:33.282Z,37.10
2022-09-06T12:17:28.812Z,35.69
2022-09-06T12:20:07.240Z,36.49
2022-09-06T12:22:59.149Z,36.89
2022-09-06T12:25:53.073Z,37.38
2022-09-06T12:28:32.790Z,36.79
2022-09-06T12:31:02.888Z,35.51
2022-09-06T12:33:33.628Z,35.30
2022-09-06T12:36:15.094Z,34.63
2022-09-06T12:38:55.817Z,34.29
2022-09-06T12:41:25.238Z,33.16
2022-09-06T12:43:55.823Z,31.94
2022-09-06T12:46:26.942Z,30.93
2022-09-06T12:49:06.938Z,30.53
2022-09-06T12:51:36.302Z,29.25
2022-09-06T12:54:06.941Z,29.18
2022-09-06T12:56:35.807Z,27.87
2022-09-06T12:59:17.143Z,28.49
2022-09-06T13:01:57.034Z,29.20
2022-09-06T13:04:33.825Z,29.55
2022-09-06T13:07:04.525Z,28.98
2022-09-06T13:09:33.328Z,29.16
2022-09-06T13:12:07.052Z,28.27
2022-09-06T13:14:36.217Z,27.48
2022-09-06T13:17:05.621Z,27.30
2022-09-06T13:19:35.893Z,28.58
2022-09-06T13:22:07.525Z,28.46
2022-09-06T13:24:47.440Z,27.49
2022-09-06T13:27:27.165Z,27.19
2022-09-06T13:29:59.506Z,27.34
2022-09-06T13:32:32.415Z,27.16
2022-09-06T13:35:01.272Z,27.86
2022-09-06T13:37:31.568Z,28.83
2022-09-06T13:39:59.936Z,27.59
2022-09-06T13:42:30.314Z,26.93
2022-09-06T13:45:02.000Z,26.09
2022-09-06T13:47:31.789Z,26.84
2022-09-06T13:50:00.409Z,27.45
2022-09-06T13:52:28.373Z,27.20
2022-09-06T13:54:56.460Z,26.38
2022-09-06T13:57:24.842Z,26.70
2022-09-06T13:59:52.771Z,27.89
2022-09-06T14:02:21.149Z,28.26
2022-09-06T14:04:50.828Z,27.65
2022-09-06T14:07:18.684Z,27.51
2022-09-06T14:09:47.706Z,28.65
2022-09-06T14:12:15.643Z,31.05
2022-09-06T14:14:44.637Z,32.24
2022-09-06T14:17:12.676Z,31.81
2022-09-06T14:19:41.461Z,30.84
2022-09-06T14:22:10.722Z,30.47
2022-09-06T14:24:38.804Z,31.71
2022-09-06T14:27:07.248Z,32.18
2022-09-06T14:29:35.746Z,32.97
2022-09-06T14:32:04.611Z,32.87
2022-09-06T14:34:32.730Z,31.78
2022-09-06T14:37:00.601Z,30.80
2022-09-06T14:39:30.173Z,31.12
2022-09-06T14:41:58.068Z,31.79
2022-09-06T14:44:26.060Z,30.95
2022-09-06T14:46:54.864Z,31.15
2022-09-06T14:49:22.825Z,30.40
2022-09-06T14:51:50.709Z,29.66
2022-09-06T14:54:20.309Z,29.47
2022-09-06T14:56:50.376Z,29.02
2022-09-06T14:59:18.409Z,29.05
2022-09-06T15:01:46.590Z,28.68
2022-09-06T15:04:14.550Z,28.48
2022-09-06T15:06:47.094Z,28.66
2022-09-06T15:09:15.667Z,28.59
2022-09-06T15:11:45.775Z,28.73
2022-09-06T15:14:17.122Z,28.24
2022-09-06T15:16:45.779Z,28.74
2022-09-06T15:19:13.908Z,29.46
2022-09-06T15:21:42.216Z,29.11
2022-09-06T15:24:12.255Z,29.32
2022-09-06T15:26:41.130Z,29.79
2022-09-06T15:29:09.929Z,30.08
2022-09-06T15:31:40.073Z,30.40
2022-09-06T15:34:09.039Z,31.12
2022-09-06T15:36:37.656Z,31.72
2022-09-06T15:39:06.706Z,32.95
2022-09-06T15:41:37.163Z,33.42
2022-09-06T15:44:09.798Z,33.48
2022-09-06T15:46:50.620Z,33.81
2022-09-06T15:49:24.377Z,34.21
2022-09-06T15:51:56.221Z,34.83
2022-09-06T15:54:45.341Z,35.26
2022-09-06T15:57:13.657Z,35.23
2022-09-06T15:59:42.017Z,35.54
2022-09-06T16:02:12.026Z,36.02
2022-09-06T16:04:40.316Z,36.49
2022-09-06T16:07:09.796Z,37.03
2022-09-06T16:09:37.735Z,37.38
2022-09-06T16:12:05.955Z,37.67
2022-09-06T16:14:34.904Z,37.95
2022-09-06T16:17:02.969Z,38.38
2022-09-06T16:19:32.360Z,38.71
2022-09-06T16:22:01.047Z,39.30
2022-09-06T16:24:29.312Z,39.71
2022-09-06T16:26:57.307Z,40.09
2022-09-06T16:29:25.350Z,40.55
2022-09-06T16:31:59.720Z,40.81
2022-09-06T16:34:27.992Z,40.92
2022-09-06T16:36:57.284Z,41.62
2022-09-06T16:39:25.448Z,41.71
2022-09-06T16:41:53.614Z,41.93
2022-09-06T16:44:21.609Z,42.48
2022-09-06T16:46:51.390Z,42.55
2022-09-06T16:49:19.809Z,42.70
2022-09-06T16:51:48.394Z,42.88
2022-09-06T16:54:19.111Z,43.19
2022-09-06T16:56:47.341Z,43.25
2022-09-06T16:59:17.362Z,43.33
2022-09-06T17:01:45.906Z,43.69
2022-09-06T17:04:14.355Z,43.88
2022-09-06T17:06:45.741Z,44.07
2022-09-06T17:09:15.713Z,44.31
2022-09-06T17:11:45.193Z,44.80
2022-09-06T17:14:13.137Z,44.81
2022-09-06T17:16:58.547Z,44.90
2022-09-06T17:19:26.854Z,45.35
2022-09-06T17:21:54.945Z,45.64
2022-09-06T17:24:23.105Z,45.74
2022-09-06T17:26:52.490Z,45.92
2022-09-06T17:29:20.545Z,46.13
2022-09-06T17:31:50.252Z,46.46
2022-09-06T17:34:18.356Z,46.77
2022-09-06T17:36:46.352Z,47.15
2022-09-06T17:39:17.704Z,47.26
2022-09-06T17:41:47.337Z,47.53
2022-09-06T17:44:20.060Z,48.08
2022-09-06T17:47:09.087Z,47.85
2022-09-06T17:49:37.034Z,48.13
2022-09-06T17:52:05.131Z,48.40
2022-09-06T17:54:33.522Z,48.65
2022-09-06T17:57:01.545Z,49.11
2022-09-06T17:59:35.037Z,49.08
2022-09-06T18:02:03.605Z,49.24
2022-09-06T18:04:31.646Z,49.62
2022-09-06T18:06:59.544Z,49.95
2022-09-06T18:09:27.715Z,50.14
2022-09-06T18:11:56.170Z,50.44
2022-09-06T18:14:24.017Z,50.72
2022-09-06T18:16:53.889Z,51.02
2022-09-06T18:19:23.228Z,51.32
2022-09-06T18:21:51.901Z,51.42
2022-09-06T18:24:20.130Z,51.72
2022-09-06T18:26:49.177Z,51.81
2022-09-06T18:29:18.530Z,52.22
2022-09-06T18:31:46.530Z,52.30
2022-09-06T18:34:16.723Z,52.60
2022-09-06T18:36:44.619Z,52.73
2022-09-06T18:39:13.323Z,53.08
2022-09-06T18:41:58.469Z,53.20
2022-09-06T18:44:31.418Z,53.35
2022-09-06T18:47:01.569Z,53.50
2022-09-06T18:49:32.637Z,53.79
2022-09-06T18:52:00.978Z,53.98
2022-09-06T18:54:29.001Z,54.19
2022-09-06T18:56:56.968Z,54.50
2022-09-06T18:59:25.249Z,54.67
2022-09-06T19:01:53.233Z,54.70
2022-09-06T19:04:21.552Z,54.93
2022-09-06T19:06:50.856Z,55.38
2022-09-06T19:09:19.112Z,56.27
2022-09-06T19:11:51.697Z,57.23
2022-09-06T19:14:19.966Z,57.78
2022-09-06T19:16:50.149Z,58.30
2022-09-06T19:19:18.515Z,58.91
2022-09-06T19:21:46.436Z,59.15
2022-09-06T19:24:16.295Z,59.36
2022-09-06T19:26:45.235Z,59.50
2022-09-06T19:29:15.699Z,59.79
2022-09-06T19:31:44.244Z,59.99
2022-09-06T19:34:13.739Z,60.46
2022-09-06T19:36:42.068Z,60.85
2022-09-06T19:39:13.257Z,61.54
2022-09-06T19:41:45.343Z,62.00
2022-09-06T19:44:14.793Z,62.11
2022-09-06T19:46:46.002Z,62.30
2022-09-06T19:49:15.252Z,62.61
2022-09-06T19:51:45.352Z,62.94
2022-09-06T19:54:15.609Z,63.34
2022-09-06T19:56:46.188Z,63.55
2022-09-06T19:59:15.316Z,63.89
2022-09-06T20:01:45.288Z,64.04
2022-09-06T20:04:14.974Z,64.44
2022-09-06T20:06:43.225Z,64.32
2022-09-06T20:09:12.289Z,64.58
2022-09-06T20:11:41.756Z,64.86
2022-09-06T20:14:11.885Z,65.06
2022-09-06T20:16:42.036Z,65.14
2022-09-06T20:19:12.112Z,65.30
2022-09-06T20:21:40.136Z,65.46
2022-09-06T20:24:08.317Z,65.82
2022-09-06T20:26:36.289Z,66.05
2022-09-06T20:29:06.731Z,66.38
2022-09-06T20:31:37.617Z,66.51
2022-09-06T20:34:06.888Z,66.45
2022-09-06T20:36:34.907Z,66.51
2022-09-06T20:39:03.583Z,66.57
2022-09-06T20:41:31.554Z,66.69
2022-09-06T20:44:00.991Z,67.00
2022-09-06T20:46:31.129Z,67.28
2022-09-06T20:49:04.398Z,67.16
2022-09-06T20:51:34.306Z,67.29
2022-09-06T20:54:03.611Z,67.36
2022-09-06T20:56:34.358Z,67.63
2022-09-06T20:59:04.221Z,68.41
2022-09-06T21:01:34.808Z,69.36
2022-09-06T21:04:07.219Z,69.65
2022-09-06T21:06:36.770Z,70.26
2022-09-06T21:09:05.312Z,70.93
2022-09-06T21:11:33.409Z,71.18
2022-09-06T21:14:01.446Z,71.82
2022-09-06T21:16:30.273Z,72.20
2022-09-06T21:18:59.693Z,72.61
2022-09-06T21:21:30.335Z,72.92
2022-09-06T21:23:58.257Z,73.46
2022-09-06T21:26:26.620Z,73.75
2022-09-06T21:28:55.115Z,73.93
2022-09-06T21:31:24.399Z,74.15
2022-09-06T21:33:53.821Z,74.39
2022-09-06T21:36:23.246Z,74.84
2022-09-06T21:38:55.604Z,75.45
2022-09-06T21:41:24.589Z,75.56
2022-09-06T21:43:53.701Z,75.50
2022-09-06T21:46:25.291Z,76.35
2022-09-06T21:48:56.095Z,76.64
2022-09-06T21:51:27.358Z,76.78
2022-09-06T21:53:58.027Z,76.97
2022-09-06T21:56:26.602Z,77.10
2022-09-06T21:58:56.513Z,77.15
2022-09-06T22:01:25.130Z,76.95
2022-09-06T22:03:53.150Z,76.90
2022-09-06T22:06:22.788Z,76.85
2022-09-06T22:08:51.076Z,76.81
2022-09-06T22:11:23.393Z,77.20
2022-09-06T22:13:51.971Z,77.00
2022-09-06T22:16:22.476Z,77.04
2022-09-06T22:18:51.650Z,77.19
2022-09-06T22:21:21.243Z,77.28
2022-09-06T22:23:53.020Z,77.48
2022-09-06T22:26:22.937Z,77.39
2022-09-06T22:28:55.347Z,77.76
2022-09-06T22:31:23.479Z,77.85
2022-09-06T22:33:51.588Z,77.86
2022-09-06T22:36:19.898Z,78.00
2022-09-06T22:38:48.383Z,77.95
2022-09-06T22:41:16.292Z,78.18
2022-09-06T22:43:45.733Z,78.49
2022-09-06T22:46:13.888Z,78.38
2022-09-06T22:48:41.848Z,78.88
2022-09-06T22:51:10.421Z,78.66
2022-09-06T22:53:38.386Z,79.02
2022-09-06T22:56:06.534Z,79.48
2022-09-06T22:58:35.493Z,79.21
2022-09-06T23:01:11.219Z,79.85
2022-09-06T23:03:39.783Z,79.42
2022-09-06T23:06:08.137Z,79.45
2022-09-06T23:08:37.186Z,79.64
2022-09-06T23:11:08.042Z,79.71
2022-09-06T23:13:36.186Z,79.87
2022-09-06T23:16:05.969Z,80.09
2022-09-06T23:18:35.807Z,80.11
2022-09-06T23:21:08.121Z,80.31
2022-09-06T23:23:39.195Z,80.17
2022-09-06T23:26:08.136Z,80.52
2022-09-06T23:28:36.902Z,80.39
2022-09-06T23:31:06.294Z,80.38
2022-09-06T23:33:37.469Z,80.24
2022-09-06T23:36:06.309Z,79.96
2022-09-06T23:38:34.782Z,80.39
2022-09-06T23:41:03.334Z,80.36
2022-09-06T23:43:31.550Z,80.12
2022-09-06T23:45:59.630Z,80.12
2022-09-06T23:48:27.997Z,79.79
2022-09-06T23:50:57.269Z,79.56
2022-09-06T23:53:25.261Z,79.07
2022-09-06T23:55:53.174Z,78.84
2022-09-06T23:58:21.414Z,78.84
